SAS164 ESSA-EFHK
Flight info
| Callsign | SAS164 |
|---|---|
| Flight time | 0h 36m |
| Altitude | 25000 |
| Route | TOVRI N851 RIKUM DCT RIRIP Y364 LAKUT |
| Aircraft | A20N/M-SDE2E3FGHIRWXY/LB1 |
Departure
| Time | 2026-05-07 18:58 |
|---|---|
| Airport | Stockholm-Arlanda Airport (ESSA) |
Arrival
| Time | 2026-05-07 19:34 |
|---|---|
| Airport | Helsinki Vantaa Airport (EFHK) |
| Time | Latitude | Longitude | Altitude | Speed | Heading |
|---|---|---|---|---|---|
| 2026-05-07 18:25 | 59.65330 | 17.93139 | 111 ft | 0 kts | 251° |
| 2026-05-07 18:46 | 59.65334 | 17.93160 | 111 ft | 2 kts | 252° |
| 2026-05-07 18:46 | 59.65337 | 17.93181 | 111 ft | 2 kts | 253° |
| 2026-05-07 18:46 | 59.65340 | 17.93197 | 110 ft | 2 kts | 255° |
| 2026-05-07 18:46 | 59.65342 | 17.93217 | 110 ft | 2 kts | 258° |
| 2026-05-07 18:47 | 59.65345 | 17.93249 | 109 ft | 2 kts | 269° |
| 2026-05-07 18:47 | 59.65342 | 17.93282 | 108 ft | 2 kts | 317° |
| 2026-05-07 18:47 | 59.65332 | 17.93293 | 108 ft | 1 kts | 347° |
| 2026-05-07 18:48 | 59.65334 | 17.93292 | 110 ft | 0 kts | 347° |
| 2026-05-07 18:51 | 59.65338 | 17.93290 | 109 ft | 3 kts | 347° |
| 2026-05-07 18:51 | 59.65385 | 17.93270 | 111 ft | 11 kts | 347° |
| 2026-05-07 18:51 | 59.65418 | 17.93255 | 111 ft | 0 kts | 347° |
| 2026-05-07 18:52 | 59.65425 | 17.93252 | 111 ft | 3 kts | 347° |
| 2026-05-07 18:52 | 59.65458 | 17.93222 | 111 ft | 7 kts | 327° |
| 2026-05-07 18:52 | 59.65500 | 17.93140 | 112 ft | 10 kts | 290° |
| 2026-05-07 18:52 | 59.65487 | 17.92986 | 110 ft | 13 kts | 250° |
| 2026-05-07 18:53 | 59.65453 | 17.92797 | 110 ft | 16 kts | 249° |
| 2026-05-07 18:53 | 59.65466 | 17.92588 | 107 ft | 19 kts | 328° |
| 2026-05-07 18:53 | 59.65611 | 17.92485 | 103 ft | 24 kts | 347° |
| 2026-05-07 18:53 | 59.65779 | 17.92421 | 103 ft | 25 kts | 360° |
| 2026-05-07 18:54 | 59.65902 | 17.92412 | 108 ft | 8 kts | 308° |
| 2026-05-07 18:54 | 59.65914 | 17.92319 | 110 ft | 0 kts | 280° |
| 2026-05-07 18:57 | 59.65914 | 17.92317 | 110 ft | 1 kts | 280° |
| 2026-05-07 18:57 | 59.65922 | 17.92186 | 114 ft | 19 kts | 264° |
| 2026-05-07 18:57 | 59.65780 | 17.92069 | 110 ft | 45 kts | 192° |
| 2026-05-07 18:58 | 59.65154 | 17.91846 | 104 ft | 129 kts | 191° |
| 2026-05-07 18:58 | 59.64448 | 17.91587 | 128 ft | 171 kts | 189° |
| 2026-05-07 18:58 | 59.63201 | 17.91090 | 749 ft | 188 kts | 189° |
| 2026-05-07 18:58 | 59.61893 | 17.90631 | 1851 ft | 192 kts | 188° |
| 2026-05-07 18:59 | 59.60526 | 17.90399 | 2748 ft | 200 kts | 179° |
| 2026-05-07 18:59 | 59.59084 | 17.90508 | 3521 ft | 214 kts | 176° |
| 2026-05-07 18:59 | 59.57555 | 17.90756 | 4327 ft | 222 kts | 173° |
| 2026-05-07 18:59 | 59.56076 | 17.91637 | 4917 ft | 229 kts | 147° |
| 2026-05-07 19:00 | 59.54839 | 17.93639 | 4998 ft | 230 kts | 134° |
| 2026-05-07 19:00 | 59.53989 | 17.96235 | 4988 ft | 228 kts | 103° |
| 2026-05-07 19:00 | 59.53907 | 17.99411 | 5089 ft | 239 kts | 80° |
| 2026-05-07 19:00 | 59.54375 | 18.02727 | 5468 ft | 261 kts | 66° |
| 2026-05-07 19:01 | 59.55184 | 18.05978 | 6377 ft | 267 kts | 59° |
| 2026-05-07 19:01 | 59.56175 | 18.09246 | 7340 ft | 272 kts | 56° |
| 2026-05-07 19:01 | 59.57181 | 18.12360 | 8224 ft | 278 kts | 54° |
| 2026-05-07 19:01 | 59.58250 | 18.15639 | 9146 ft | 284 kts | 54° |
| 2026-05-07 19:02 | 59.59329 | 18.18982 | 10073 ft | 291 kts | 54° |
| 2026-05-07 19:02 | 59.60438 | 18.22443 | 10694 ft | 307 kts | 54° |
| 2026-05-07 19:02 | 59.61614 | 18.26124 | 11034 ft | 330 kts | 54° |
| 2026-05-07 19:02 | 59.62864 | 18.30055 | 11541 ft | 345 kts | 55° |
| 2026-05-07 19:03 | 59.64149 | 18.34125 | 12357 ft | 350 kts | 54° |
| 2026-05-07 19:03 | 59.65450 | 18.38260 | 13174 ft | 355 kts | 54° |
| 2026-05-07 19:03 | 59.66757 | 18.42415 | 13978 ft | 361 kts | 54° |
| 2026-05-07 19:03 | 59.68094 | 18.46670 | 14664 ft | 367 kts | 54° |
| 2026-05-07 19:04 | 59.69444 | 18.50973 | 15363 ft | 372 kts | 54° |
| 2026-05-07 19:04 | 59.70818 | 18.55361 | 16041 ft | 378 kts | 54° |
| 2026-05-07 19:04 | 59.72208 | 18.59804 | 16718 ft | 384 kts | 54° |
| 2026-05-07 19:04 | 59.73639 | 18.64389 | 17395 ft | 390 kts | 54° |
| 2026-05-07 19:05 | 59.75061 | 18.68953 | 18080 ft | 397 kts | 54° |
| 2026-05-07 19:05 | 59.76526 | 18.73665 | 18878 ft | 402 kts | 54° |
| 2026-05-07 19:05 | 59.78013 | 18.78458 | 19628 ft | 408 kts | 54° |
| 2026-05-07 19:05 | 59.79497 | 18.83247 | 20345 ft | 413 kts | 54° |
| 2026-05-07 19:06 | 59.81022 | 18.88183 | 21069 ft | 419 kts | 54° |
| 2026-05-07 19:06 | 59.84106 | 18.98189 | 22444 ft | 430 kts | 54° |
| 2026-05-07 19:06 | 59.85661 | 19.03254 | 23085 ft | 435 kts | 54° |
| 2026-05-07 19:07 | 59.87257 | 19.08463 | 23739 ft | 440 kts | 54° |
| 2026-05-07 19:07 | 59.88850 | 19.13672 | 24270 ft | 444 kts | 54° |
| 2026-05-07 19:07 | 59.90467 | 19.18975 | 24819 ft | 448 kts | 54° |
| 2026-05-07 19:07 | 59.92086 | 19.24287 | 25114 ft | 459 kts | 54° |
| 2026-05-07 19:08 | 59.93776 | 19.29839 | 25190 ft | 475 kts | 54° |
| 2026-05-07 19:08 | 59.95511 | 19.35639 | 25184 ft | 493 kts | 57° |
| 2026-05-07 19:08 | 59.96982 | 19.41898 | 25188 ft | 513 kts | 65° |
| 2026-05-07 19:08 | 59.98082 | 19.48847 | 25186 ft | 530 kts | 74° |
| 2026-05-07 19:09 | 59.98947 | 19.56108 | 25182 ft | 540 kts | 74° |
| 2026-05-07 19:09 | 59.99831 | 19.63400 | 25182 ft | 547 kts | 74° |
| 2026-05-07 19:09 | 60.00726 | 19.70778 | 25185 ft | 537 kts | 74° |
| 2026-05-07 19:09 | 60.01581 | 19.77889 | 25184 ft | 512 kts | 74° |
| 2026-05-07 19:10 | 60.02384 | 19.84615 | 25184 ft | 490 kts | 74° |
| 2026-05-07 19:10 | 60.03158 | 19.91129 | 25184 ft | 470 kts | 74° |
| 2026-05-07 19:10 | 60.03902 | 19.97413 | 25184 ft | 458 kts | 74° |
| 2026-05-07 19:10 | 60.04645 | 20.03690 | 25186 ft | 464 kts | 74° |
| 2026-05-07 19:11 | 60.05390 | 20.10015 | 25185 ft | 465 kts | 74° |
| 2026-05-07 19:11 | 60.06128 | 20.16320 | 25184 ft | 468 kts | 74° |
| 2026-05-07 19:11 | 60.06876 | 20.22719 | 25185 ft | 483 kts | 74° |
| 2026-05-07 19:11 | 60.07646 | 20.29348 | 25183 ft | 498 kts | 74° |
| 2026-05-07 19:12 | 60.08445 | 20.36263 | 25183 ft | 511 kts | 75° |
| 2026-05-07 19:12 | 60.09242 | 20.43211 | 25184 ft | 523 kts | 75° |
| 2026-05-07 19:12 | 60.10062 | 20.50395 | 25176 ft | 531 kts | 75° |
| 2026-05-07 19:12 | 60.10882 | 20.57632 | 25177 ft | 532 kts | 75° |
| 2026-05-07 19:13 | 60.11699 | 20.64878 | 25173 ft | 532 kts | 75° |
| 2026-05-07 19:13 | 60.12513 | 20.72137 | 25175 ft | 532 kts | 75° |
| 2026-05-07 19:13 | 60.13318 | 20.79350 | 25173 ft | 532 kts | 75° |
| 2026-05-07 19:13 | 60.14130 | 20.86660 | 25174 ft | 533 kts | 75° |
| 2026-05-07 19:14 | 60.14933 | 20.93926 | 25176 ft | 533 kts | 75° |
| 2026-05-07 19:14 | 60.15736 | 21.01230 | 25173 ft | 533 kts | 75° |
| 2026-05-07 19:14 | 60.16534 | 21.08535 | 25173 ft | 534 kts | 75° |
| 2026-05-07 19:14 | 60.17330 | 21.15855 | 25172 ft | 534 kts | 75° |
| 2026-05-07 19:15 | 60.18118 | 21.23146 | 25173 ft | 534 kts | 76° |
| 2026-05-07 19:15 | 60.18898 | 21.30409 | 25171 ft | 534 kts | 76° |
| 2026-05-07 19:15 | 60.19684 | 21.37760 | 25171 ft | 534 kts | 76° |
| 2026-05-07 19:15 | 60.20456 | 21.45003 | 25168 ft | 535 kts | 76° |
| 2026-05-07 19:16 | 60.21228 | 21.52291 | 25166 ft | 535 kts | 76° |
| 2026-05-07 19:16 | 60.22002 | 21.59647 | 25170 ft | 535 kts | 76° |
| 2026-05-07 19:16 | 60.22773 | 21.67007 | 25166 ft | 536 kts | 76° |
| 2026-05-07 19:16 | 60.23541 | 21.74381 | 25165 ft | 536 kts | 76° |
| 2026-05-07 19:17 | 60.24313 | 21.81845 | 25165 ft | 536 kts | 76° |
| 2026-05-07 19:17 | 60.25064 | 21.89132 | 25165 ft | 537 kts | 76° |
| 2026-05-07 19:17 | 60.25827 | 21.96592 | 25159 ft | 537 kts | 76° |
| 2026-05-07 19:17 | 60.26574 | 22.03926 | 25161 ft | 538 kts | 77° |
| 2026-05-07 19:18 | 60.27325 | 22.11348 | 25150 ft | 536 kts | 77° |
| 2026-05-07 19:18 | 60.28058 | 22.18652 | 25065 ft | 527 kts | 77° |
| 2026-05-07 19:18 | 60.28769 | 22.25778 | 24911 ft | 513 kts | 77° |
| 2026-05-07 19:18 | 60.29465 | 22.32795 | 24736 ft | 497 kts | 77° |
| 2026-05-07 19:19 | 60.30138 | 22.39620 | 24306 ft | 488 kts | 77° |
| 2026-05-07 19:19 | 60.30800 | 22.46345 | 23541 ft | 488 kts | 77° |
| 2026-05-07 19:19 | 60.31451 | 22.53008 | 22878 ft | 482 kts | 77° |
| 2026-05-07 19:19 | 60.32089 | 22.59572 | 22263 ft | 476 kts | 77° |
| 2026-05-07 19:20 | 60.32716 | 22.66065 | 21630 ft | 471 kts | 77° |
| 2026-05-07 19:20 | 60.33132 | 22.70396 | 21216 ft | 467 kts | 77° |
| 2026-05-07 19:20 | 60.33745 | 22.76821 | 20608 ft | 462 kts | 77° |
| 2026-05-07 19:20 | 60.34540 | 22.85194 | 19830 ft | 455 kts | 77° |
| 2026-05-07 19:21 | 60.34936 | 22.89386 | 19432 ft | 452 kts | 77° |
| 2026-05-07 19:21 | 60.35520 | 22.95597 | 18842 ft | 447 kts | 77° |
| 2026-05-07 19:21 | 60.36092 | 23.01718 | 18268 ft | 442 kts | 77° |
| 2026-05-07 19:21 | 60.36657 | 23.07791 | 17639 ft | 437 kts | 77° |
| 2026-05-07 19:22 | 60.37212 | 23.13774 | 17030 ft | 431 kts | 77° |
| 2026-05-07 19:22 | 60.37755 | 23.19670 | 16437 ft | 426 kts | 77° |
| 2026-05-07 19:22 | 60.38291 | 23.25519 | 15839 ft | 421 kts | 77° |
| 2026-05-07 19:22 | 60.38823 | 23.31360 | 15260 ft | 416 kts | 77° |
| 2026-05-07 19:23 | 60.39339 | 23.37047 | 14698 ft | 411 kts | 77° |
| 2026-05-07 19:23 | 60.39847 | 23.42674 | 14143 ft | 407 kts | 77° |
| 2026-05-07 19:23 | 60.40349 | 23.48261 | 13584 ft | 401 kts | 77° |
| 2026-05-07 19:23 | 60.40839 | 23.53749 | 13055 ft | 395 kts | 77° |
| 2026-05-07 19:24 | 60.41322 | 23.59176 | 12524 ft | 389 kts | 78° |
| 2026-05-07 19:24 | 60.41801 | 23.64587 | 12001 ft | 383 kts | 78° |
| 2026-05-07 19:24 | 60.42264 | 23.69847 | 11483 ft | 377 kts | 78° |
| 2026-05-07 19:24 | 60.42713 | 23.74976 | 11237 ft | 364 kts | 78° |
| 2026-05-07 19:25 | 60.43142 | 23.79911 | 11084 ft | 350 kts | 78° |
| 2026-05-07 19:25 | 60.43554 | 23.84671 | 10949 ft | 336 kts | 78° |
| 2026-05-07 19:25 | 60.43903 | 23.89253 | 10820 ft | 323 kts | 82° |
| 2026-05-07 19:25 | 60.44062 | 23.93772 | 10511 ft | 317 kts | 85° |
| 2026-05-07 19:26 | 60.44174 | 23.98172 | 10351 ft | 306 kts | 85° |
| 2026-05-07 19:26 | 60.44278 | 24.02366 | 10048 ft | 301 kts | 86° |
| 2026-05-07 19:26 | 60.44374 | 24.06581 | 9641 ft | 298 kts | 86° |
| 2026-05-07 19:26 | 60.44462 | 24.10814 | 9217 ft | 297 kts | 86° |
| 2026-05-07 19:27 | 60.44542 | 24.14937 | 8817 ft | 294 kts | 86° |
| 2026-05-07 19:27 | 60.44619 | 24.19051 | 8416 ft | 292 kts | 87° |
| 2026-05-07 19:27 | 60.44694 | 24.23203 | 8021 ft | 290 kts | 87° |
| 2026-05-07 19:27 | 60.44766 | 24.27249 | 7643 ft | 288 kts | 87° |
| 2026-05-07 19:28 | 60.44837 | 24.31274 | 7275 ft | 285 kts | 87° |
| 2026-05-07 19:28 | 60.44907 | 24.35292 | 6902 ft | 283 kts | 87° |
| 2026-05-07 19:28 | 60.44974 | 24.39235 | 6536 ft | 281 kts | 87° |
| 2026-05-07 19:28 | 60.45039 | 24.43124 | 6160 ft | 279 kts | 87° |
| 2026-05-07 19:29 | 60.45102 | 24.47081 | 5759 ft | 277 kts | 87° |
| 2026-05-07 19:29 | 60.45164 | 24.50994 | 5386 ft | 275 kts | 86° |
| 2026-05-07 19:29 | 60.45223 | 24.54859 | 5070 ft | 270 kts | 86° |
| 2026-05-07 19:29 | 60.45280 | 24.58635 | 4987 ft | 267 kts | 86° |
| 2026-05-07 19:30 | 60.45339 | 24.62500 | 4987 ft | 268 kts | 86° |
| 2026-05-07 19:30 | 60.45396 | 24.66249 | 4991 ft | 267 kts | 86° |
| 2026-05-07 19:30 | 60.45451 | 24.69995 | 4991 ft | 267 kts | 86° |
| 2026-05-07 19:30 | 60.45506 | 24.73786 | 4990 ft | 267 kts | 86° |
| 2026-05-07 19:31 | 60.45559 | 24.77555 | 4955 ft | 262 kts | 86° |
| 2026-05-07 19:31 | 60.45394 | 24.81132 | 4853 ft | 254 kts | 109° |
| 2026-05-07 19:31 | 60.44446 | 24.84013 | 4754 ft | 243 kts | 136° |
| 2026-05-07 19:31 | 60.43119 | 24.86017 | 4379 ft | 232 kts | 148° |
| 2026-05-07 19:32 | 60.41694 | 24.87581 | 3847 ft | 228 kts | 154° |
| 2026-05-07 19:32 | 60.40337 | 24.88954 | 3596 ft | 211 kts | 152° |
| 2026-05-07 19:32 | 60.39042 | 24.90296 | 3044 ft | 205 kts | 153° |
| 2026-05-07 19:32 | 60.37718 | 24.91592 | 2075 ft | 219 kts | 154° |
| 2026-05-07 19:33 | 60.36369 | 24.93018 | 1363 ft | 215 kts | 152° |
| 2026-05-07 19:33 | 60.35059 | 24.94369 | 740 ft | 206 kts | 155° |
| 2026-05-07 19:33 | 60.33795 | 24.95673 | 403 ft | 187 kts | 154° |
| 2026-05-07 19:33 | 60.32704 | 24.96782 | 172 ft | 170 kts | 155° |
| 2026-05-07 19:34 | 60.31784 | 24.97717 | 161 ft | 121 kts | 153° |
| 2026-05-07 19:34 | 60.31203 | 24.98311 | 159 ft | 65 kts | 153° |
| 2026-05-07 19:34 | 60.31011 | 24.98429 | 157 ft | 22 kts | 206° |
| 2026-05-07 19:34 | 60.30970 | 24.98314 | 157 ft | 0 kts | 241° |
| 2026-05-07 19:36 | 60.30967 | 24.98297 | 157 ft | 6 kts | 252° |
| 2026-05-07 19:36 | 60.31000 | 24.98186 | 158 ft | 12 kts | 331° |